Terminal Aerodrome Forecast
Issued by NWS Louisville, KY

Home | Current Version | Previous Version | Text Only | Print | Product List | Glossary On
Versions: 1 2 3 4 5 6 7 8 9 10 11 12 13 14 15 16 17 18 19 20 21
000
FTUS43 KLMK 181720
TAFSDF
TAF
KSDF 181720Z 1818/1924 26006KT P6SM FEW018 OVC021
      TEMPO 1818/1819 BKN018
     FM182030 VRB04KT P6SM BKN250
     FM192000 12007KT 3SM BR VCSH BKN015=

USA.gov is the U.S. government's official web portal to all federal, state and local government web resources and services.